sensor_id;sensor_type;location;lat;lon;timestamp;pressure;altitude;pressure_sealevel;temperature;humidity
67803;BME280;54601;51.378;-1.342;2023-05-25T00:01:14;101361.60;;;22.66;32.46
67803;BME280;54601;51.378;-1.342;2023-05-25T00:03:40;101364.70;;;22.50;32.60
67803;BME280;54601;51.378;-1.342;2023-05-25T00:06:06;101362.42;;;22.80;32.23
67803;BME280;54601;51.378;-1.342;2023-05-25T00:08:31;101363.15;;;22.33;32.46
67803;BME280;54601;51.378;-1.342;2023-05-25T00:10:57;101362.84;;;22.55;32.10
67803;BME280;54601;51.378;-1.342;2023-05-25T00:13:23;101364.13;;;22.58;32.14
67803;BME280;54601;51.378;-1.342;2023-05-25T00:15:49;101365.96;;;22.51;32.21
67803;BME280;54601;51.378;-1.342;2023-05-25T00:18:15;101370.99;;;22.56;32.04
67803;BME280;54601;51.378;-1.342;2023-05-25T00:20:41;101374.36;;;22.48;32.16
67803;BME280;54601;51.378;-1.342;2023-05-25T00:23:06;101380.92;;;22.44;32.15
67803;BME280;54601;51.378;-1.342;2023-05-25T00:25:32;101386.09;;;22.29;32.41
67803;BME280;54601;51.378;-1.342;2023-05-25T00:27:58;101384.44;;;22.53;32.04
67803;BME280;54601;51.378;-1.342;2023-05-25T00:30:24;101387.37;;;22.22;32.43
67803;BME280;54601;51.378;-1.342;2023-05-25T00:32:50;101390.68;;;22.51;32.10
67803;BME280;54601;51.378;-1.342;2023-05-25T00:35:16;101394.68;;;22.45;32.07
67803;BME280;54601;51.378;-1.342;2023-05-25T00:37:42;101393.88;;;22.69;32.24
67803;BME280;54601;51.378;-1.342;2023-05-25T00:40:10;101387.19;;;22.39;32.15
67803;BME280;54601;51.378;-1.342;2023-05-25T00:42:33;101384.39;;;22.54;31.80
67803;BME280;54601;51.378;-1.342;2023-05-25T00:44:59;101384.43;;;22.47;32.03
67803;BME280;54601;51.378;-1.342;2023-05-25T00:47:26;101387.02;;;22.21;32.17
67803;BME280;54601;51.378;-1.342;2023-05-25T00:49:51;101388.35;;;22.22;32.14
67803;BME280;54601;51.378;-1.342;2023-05-25T00:52:17;101393.78;;;22.21;32.19
67803;BME280;54601;51.378;-1.342;2023-05-25T00:54:44;101396.57;;;22.20;32.14
67803;BME280;54601;51.378;-1.342;2023-05-25T00:57:09;101404.13;;;22.74;32.08
67803;BME280;54601;51.378;-1.342;2023-05-25T00:59:37;101408.96;;;22.25;32.34
67803;BME280;54601;51.378;-1.342;2023-05-25T01:02:03;101414.05;;;22.41;31.82
67803;BME280;54601;51.378;-1.342;2023-05-25T01:04:27;101413.03;;;22.77;31.69
67803;BME280;54601;51.378;-1.342;2023-05-25T01:06:52;101411.56;;;22.81;31.80
67803;BME280;54601;51.378;-1.342;2023-05-25T01:09:18;101411.50;;;22.24;32.32
67803;BME280;54601;51.378;-1.342;2023-05-25T01:11:48;101409.83;;;22.65;31.72
67803;BME280;54601;51.378;-1.342;2023-05-25T01:14:10;101410.58;;;22.86;31.65
67803;BME280;54601;51.378;-1.342;2023-05-25T01:16:36;101410.99;;;22.24;31.88
67803;BME280;54601;51.378;-1.342;2023-05-25T01:19:01;101405.28;;;22.20;31.87
67803;BME280;54601;51.378;-1.342;2023-05-25T01:21:33;101406.68;;;22.23;31.78
67803;BME280;54601;51.378;-1.342;2023-05-25T01:24:00;101410.87;;;22.57;31.63
67803;BME280;54601;51.378;-1.342;2023-05-25T01:26:19;101409.89;;;22.06;32.09
67803;BME280;54601;51.378;-1.342;2023-05-25T01:28:49;101411.34;;;22.72;31.70
67803;BME280;54601;51.378;-1.342;2023-05-25T01:31:12;101411.14;;;22.23;31.61
67803;BME280;54601;51.378;-1.342;2023-05-25T01:33:37;101411.74;;;22.18;32.18
67803;BME280;54601;51.378;-1.342;2023-05-25T01:36:03;101410.76;;;22.05;31.93
67803;BME280;54601;51.378;-1.342;2023-05-25T01:38:28;101413.11;;;22.52;31.72
67803;BME280;54601;51.378;-1.342;2023-05-25T01:40:54;101419.71;;;22.55;31.60
67803;BME280;54601;51.378;-1.342;2023-05-25T01:43:20;101424.72;;;22.21;32.03
67803;BME280;54601;51.378;-1.342;2023-05-25T01:45:46;101421.61;;;22.19;31.90
67803;BME280;54601;51.378;-1.342;2023-05-25T01:48:17;101423.48;;;22.20;31.91
67803;BME280;54601;51.378;-1.342;2023-05-25T01:50:45;101426.21;;;22.06;31.55
67803;BME280;54601;51.378;-1.342;2023-05-25T01:53:09;101426.07;;;22.48;31.63
67803;BME280;54601;51.378;-1.342;2023-05-25T01:55:34;101424.39;;;22.72;31.17
67803;BME280;54601;51.378;-1.342;2023-05-25T01:57:58;101428.55;;;22.43;31.75
67803;BME280;54601;51.378;-1.342;2023-05-25T02:00:21;101424.57;;;22.46;31.43
67803;BME280;54601;51.378;-1.342;2023-05-25T02:02:49;101430.01;;;22.46;31.73
67803;BME280;54601;51.378;-1.342;2023-05-25T02:05:13;101421.94;;;22.60;31.53
67803;BME280;54601;51.378;-1.342;2023-05-25T02:07:39;101423.91;;;22.31;31.92
67803;BME280;54601;51.378;-1.342;2023-05-25T02:10:06;101426.91;;;22.25;31.68
67803;BME280;54601;51.378;-1.342;2023-05-25T02:12:31;101428.80;;;22.46;31.74
67803;BME280;54601;51.378;-1.342;2023-05-25T02:14:57;101429.57;;;22.18;31.77
67803;BME280;54601;51.378;-1.342;2023-05-25T02:17:23;101425.29;;;22.36;31.79
67803;BME280;54601;51.378;-1.342;2023-05-25T02:19:48;101421.88;;;22.41;31.49
67803;BME280;54601;51.378;-1.342;2023-05-25T02:22:14;101423.88;;;22.40;31.70
67803;BME280;54601;51.378;-1.342;2023-05-25T02:24:40;101423.01;;;22.34;31.47
67803;BME280;54601;51.378;-1.342;2023-05-25T02:27:06;101422.69;;;22.33;31.48
67803;BME280;54601;51.378;-1.342;2023-05-25T02:29:32;101425.27;;;22.79;31.21
67803;BME280;54601;51.378;-1.342;2023-05-25T02:31:58;101427.55;;;22.15;31.29
67803;BME280;54601;51.378;-1.342;2023-05-25T02:34:24;101428.24;;;22.43;31.59
67803;BME280;54601;51.378;-1.342;2023-05-25T02:36:50;101429.99;;;22.26;31.70
67803;BME280;54601;51.378;-1.342;2023-05-25T02:39:16;101441.04;;;22.38;31.63
67803;BME280;54601;51.378;-1.342;2023-05-25T02:41:41;101439.18;;;22.12;31.84
67803;BME280;54601;51.378;-1.342;2023-05-25T02:44:07;101440.97;;;22.13;31.46
67803;BME280;54601;51.378;-1.342;2023-05-25T02:46:33;101443.79;;;22.26;31.42
67803;BME280;54601;51.378;-1.342;2023-05-25T02:48:59;101442.13;;;22.37;31.50
67803;BME280;54601;51.378;-1.342;2023-05-25T02:51:25;101444.21;;;22.43;31.48
67803;BME280;54601;51.378;-1.342;2023-05-25T02:53:51;101446.42;;;22.26;31.61
67803;BME280;54601;51.378;-1.342;2023-05-25T02:56:17;101450.61;;;22.22;31.41
67803;BME280;54601;51.378;-1.342;2023-05-25T02:58:43;101448.04;;;22.03;31.46
67803;BME280;54601;51.378;-1.342;2023-05-25T03:01:09;101446.81;;;22.29;31.52
67803;BME280;54601;51.378;-1.342;2023-05-25T03:03:34;101445.54;;;22.24;31.55
67803;BME280;54601;51.378;-1.342;2023-05-25T03:06:00;101446.51;;;22.16;31.41
67803;BME280;54601;51.378;-1.342;2023-05-25T03:08:26;101446.83;;;21.79;31.47
67803;BME280;54601;51.378;-1.342;2023-05-25T03:10:52;101447.20;;;22.31;31.36
67803;BME280;54601;51.378;-1.342;2023-05-25T03:13:18;101448.33;;;22.09;31.45
67803;BME280;54601;51.378;-1.342;2023-05-25T03:15:44;101447.01;;;22.08;31.34
67803;BME280;54601;51.378;-1.342;2023-05-25T03:18:10;101450.02;;;21.98;31.50
67803;BME280;54601;51.378;-1.342;2023-05-25T03:20:36;101446.91;;;22.08;31.64
67803;BME280;54601;51.378;-1.342;2023-05-25T03:23:02;101444.54;;;22.16;31.50
67803;BME280;54601;51.378;-1.342;2023-05-25T03:25:27;101444.66;;;22.13;31.48
67803;BME280;54601;51.378;-1.342;2023-05-25T03:27:54;101443.13;;;22.00;31.63
67803;BME280;54601;51.378;-1.342;2023-05-25T03:30:20;101440.58;;;22.25;31.17
67803;BME280;54601;51.378;-1.342;2023-05-25T03:32:45;101439.53;;;22.09;31.55
67803;BME280;54601;51.378;-1.342;2023-05-25T03:35:11;101437.84;;;22.30;31.27
67803;BME280;54601;51.378;-1.342;2023-05-25T03:37:37;101436.50;;;21.85;31.49
67803;BME280;54601;51.378;-1.342;2023-05-25T03:40:03;101434.62;;;22.37;31.14
67803;BME280;54601;51.378;-1.342;2023-05-25T03:42:29;101429.51;;;21.77;31.51
67803;BME280;54601;51.378;-1.342;2023-05-25T03:44:55;101429.90;;;22.20;31.36
67803;BME280;54601;51.378;-1.342;2023-05-25T03:47:20;101427.16;;;22.35;31.17
67803;BME280;54601;51.378;-1.342;2023-05-25T03:49:46;101427.83;;;22.07;31.29
67803;BME280;54601;51.378;-1.342;2023-05-25T03:52:12;101428.11;;;21.97;31.48
67803;BME280;54601;51.378;-1.342;2023-05-25T03:54:38;101427.33;;;21.94;31.50
67803;BME280;54601;51.378;-1.342;2023-05-25T03:57:04;101429.30;;;22.12;31.20
67803;BME280;54601;51.378;-1.342;2023-05-25T03:59:30;101428.90;;;22.60;30.65
67803;BME280;54601;51.378;-1.342;2023-05-25T04:01:55;101434.35;;;21.86;31.24
67803;BME280;54601;51.378;-1.342;2023-05-25T04:04:21;101456.88;;;22.37;30.80
67803;BME280;54601;51.378;-1.342;2023-05-25T04:06:47;101442.60;;;22.22;31.36
67803;BME280;54601;51.378;-1.342;2023-05-25T04:09:14;101458.83;;;21.98;31.35
67803;BME280;54601;51.378;-1.342;2023-05-25T04:11:39;101448.26;;;21.99;31.27
67803;BME280;54601;51.378;-1.342;2023-05-25T04:14:05;101449.81;;;22.04;31.29
67803;BME280;54601;51.378;-1.342;2023-05-25T04:16:31;101455.72;;;22.39;30.78
67803;BME280;54601;51.378;-1.342;2023-05-25T04:18:57;101451.65;;;22.05;31.20
67803;BME280;54601;51.378;-1.342;2023-05-25T04:21:23;101459.38;;;22.39;30.76
67803;BME280;54601;51.378;-1.342;2023-05-25T04:23:48;101459.62;;;22.62;30.36
67803;BME280;54601;51.378;-1.342;2023-05-25T04:26:14;101455.12;;;21.97;30.99
67803;BME280;54601;51.378;-1.342;2023-05-25T04:28:40;101451.48;;;22.13;30.63
67803;BME280;54601;51.378;-1.342;2023-05-25T04:31:06;101451.42;;;22.12;31.06
67803;BME280;54601;51.378;-1.342;2023-05-25T04:33:32;101452.55;;;22.09;30.83
67803;BME280;54601;51.378;-1.342;2023-05-25T04:35:58;101453.87;;;22.58;30.56
67803;BME280;54601;51.378;-1.342;2023-05-25T04:38:24;101452.69;;;21.88;31.18
67803;BME280;54601;51.378;-1.342;2023-05-25T04:40:50;101453.69;;;22.08;31.05
67803;BME280;54601;51.378;-1.342;2023-05-25T04:43:16;101459.24;;;21.34;31.38
67803;BME280;54601;51.378;-1.342;2023-05-25T04:45:42;101457.46;;;22.22;30.78
67803;BME280;54601;51.378;-1.342;2023-05-25T04:48:07;101457.20;;;22.35;30.81
67803;BME280;54601;51.378;-1.342;2023-05-25T04:50:33;101462.64;;;22.28;30.66
67803;BME280;54601;51.378;-1.342;2023-05-25T04:52:59;101464.59;;;21.88;31.28
67803;BME280;54601;51.378;-1.342;2023-05-25T04:55:25;101462.45;;;22.01;31.00
67803;BME280;54601;51.378;-1.342;2023-05-25T04:57:52;101469.26;;;21.98;31.40
67803;BME280;54601;51.378;-1.342;2023-05-25T05:00:18;101467.51;;;21.71;31.50
67803;BME280;54601;51.378;-1.342;2023-05-25T05:02:43;101472.50;;;21.83;31.29
67803;BME280;54601;51.378;-1.342;2023-05-25T05:05:09;101467.53;;;21.78;31.37
67803;BME280;54601;51.378;-1.342;2023-05-25T05:07:35;101468.28;;;21.75;31.38
67803;BME280;54601;51.378;-1.342;2023-05-25T05:10:01;101470.05;;;21.79;31.38
67803;BME280;54601;51.378;-1.342;2023-05-25T05:12:27;101469.11;;;22.20;30.43
67803;BME280;54601;51.378;-1.342;2023-05-25T05:14:53;101472.07;;;21.77;31.33
67803;BME280;54601;51.378;-1.342;2023-05-25T05:17:19;101474.16;;;22.23;30.82
67803;BME280;54601;51.378;-1.342;2023-05-25T05:19:45;101478.83;;;22.13;30.75
67803;BME280;54601;51.378;-1.342;2023-05-25T05:22:11;101484.79;;;21.85;31.20
67803;BME280;54601;51.378;-1.342;2023-05-25T05:24:37;101490.11;;;22.14;30.83
67803;BME280;54601;51.378;-1.342;2023-05-25T05:27:03;101492.40;;;22.00;31.01
67803;BME280;54601;51.378;-1.342;2023-05-25T05:29:28;101491.92;;;21.79;31.14
67803;BME280;54601;51.378;-1.342;2023-05-25T05:31:55;101494.86;;;21.71;31.39
67803;BME280;54601;51.378;-1.342;2023-05-25T05:34:20;101496.10;;;22.13;31.13
67803;BME280;54601;51.378;-1.342;2023-05-25T05:36:46;101498.96;;;22.21;30.79
67803;BME280;54601;51.378;-1.342;2023-05-25T05:39:13;101497.88;;;21.66;31.47
67803;BME280;54601;51.378;-1.342;2023-05-25T05:41:38;101499.56;;;21.59;31.55
67803;BME280;54601;51.378;-1.342;2023-05-25T05:44:04;101498.63;;;21.70;31.46
67803;BME280;54601;51.378;-1.342;2023-05-25T05:46:30;101506.01;;;21.70;31.48
67803;BME280;54601;51.378;-1.342;2023-05-25T05:48:56;101505.14;;;21.71;31.51
67803;BME280;54601;51.378;-1.342;2023-05-25T05:51:22;101506.22;;;21.67;31.58
67803;BME280;54601;51.378;-1.342;2023-05-25T05:53:48;101512.49;;;22.48;30.86
67803;BME280;54601;51.378;-1.342;2023-05-25T05:56:17;101509.52;;;21.65;31.64
67803;BME280;54601;51.378;-1.342;2023-05-25T05:58:40;101512.04;;;21.78;31.50
67803;BME280;54601;51.378;-1.342;2023-05-25T06:01:06;101514.35;;;21.86;31.43
67803;BME280;54601;51.378;-1.342;2023-05-25T06:03:32;101514.75;;;21.89;31.67
67803;BME280;54601;51.378;-1.342;2023-05-25T06:05:58;101521.34;;;21.68;31.61
67803;BME280;54601;51.378;-1.342;2023-05-25T06:08:24;101520.50;;;21.62;31.73
67803;BME280;54601;51.378;-1.342;2023-05-25T06:10:49;101525.60;;;21.69;31.68
67803;BME280;54601;51.378;-1.342;2023-05-25T06:13:15;101527.36;;;21.73;31.61
67803;BME280;54601;51.378;-1.342;2023-05-25T06:15:41;101528.61;;;21.89;31.46
67803;BME280;54601;51.378;-1.342;2023-05-25T06:18:07;101529.54;;;21.85;31.49
67803;BME280;54601;51.378;-1.342;2023-05-25T06:20:33;101534.07;;;21.49;31.94
67803;BME280;54601;51.378;-1.342;2023-05-25T06:22:59;101537.30;;;21.77;31.61
67803;BME280;54601;51.378;-1.342;2023-05-25T06:25:25;101535.26;;;21.59;31.81
67803;BME280;54601;51.378;-1.342;2023-05-25T06:27:51;101536.67;;;21.59;31.82
67803;BME280;54601;51.378;-1.342;2023-05-25T06:30:17;101539.60;;;21.94;31.42
67803;BME280;54601;51.378;-1.342;2023-05-25T06:32:43;101538.55;;;21.58;31.85
67803;BME280;54601;51.378;-1.342;2023-05-25T06:35:09;101535.34;;;21.67;31.70
67803;BME280;54601;51.378;-1.342;2023-05-25T06:37:35;101534.32;;;21.76;31.63
67803;BME280;54601;51.378;-1.342;2023-05-25T06:40:01;101533.43;;;22.19;31.39
67803;BME280;54601;51.378;-1.342;2023-05-25T06:42:27;101542.05;;;22.00;31.65
67803;BME280;54601;51.378;-1.342;2023-05-25T06:44:53;101544.73;;;21.92;31.45
67803;BME280;54601;51.378;-1.342;2023-05-25T06:47:19;101546.09;;;22.07;31.32
67803;BME280;54601;51.378;-1.342;2023-05-25T06:49:45;101545.19;;;21.97;31.43
67803;BME280;54601;51.378;-1.342;2023-05-25T06:52:11;101548.09;;;22.43;31.20
67803;BME280;54601;51.378;-1.342;2023-05-25T06:54:36;101546.39;;;21.99;31.44
67803;BME280;54601;51.378;-1.342;2023-05-25T06:57:03;101547.03;;;21.85;31.62
67803;BME280;54601;51.378;-1.342;2023-05-25T06:59:28;101550.06;;;21.96;31.48
67803;BME280;54601;51.378;-1.342;2023-05-25T07:01:54;101550.14;;;22.02;31.41
67803;BME280;54601;51.378;-1.342;2023-05-25T07:04:20;101553.20;;;22.30;31.17
67803;BME280;54601;51.378;-1.342;2023-05-25T07:06:46;101558.89;;;22.16;31.29
67803;BME280;54601;51.378;-1.342;2023-05-25T07:09:12;101564.04;;;22.20;31.22
67803;BME280;54601;51.378;-1.342;2023-05-25T07:11:38;101563.10;;;22.15;31.28
67803;BME280;54601;51.378;-1.342;2023-05-25T07:14:04;101564.44;;;21.94;31.51
67803;BME280;54601;51.378;-1.342;2023-05-25T07:16:30;101566.84;;;21.87;31.34
67803;BME280;54601;51.378;-1.342;2023-05-25T07:18:56;101567.85;;;21.86;31.62
67803;BME280;54601;51.378;-1.342;2023-05-25T07:21:22;101566.47;;;22.32;31.04
67803;BME280;54601;51.378;-1.342;2023-05-25T07:23:48;101565.63;;;22.03;31.37
67803;BME280;54601;51.378;-1.342;2023-05-25T07:26:14;101563.00;;;22.10;31.27
67803;BME280;54601;51.378;-1.342;2023-05-25T07:28:40;101566.35;;;22.47;31.03
67803;BME280;54601;51.378;-1.342;2023-05-25T07:31:07;101560.74;;;22.51;31.20
67803;BME280;54601;51.378;-1.342;2023-05-25T07:33:32;101557.90;;;22.22;31.29
67803;BME280;54601;51.378;-1.342;2023-05-25T07:35:58;101559.13;;;22.09;31.34
67803;BME280;54601;51.378;-1.342;2023-05-25T07:38:24;101561.47;;;22.54;31.07
67803;BME280;54601;51.378;-1.342;2023-05-25T07:40:50;101560.53;;;22.53;31.08
67803;BME280;54601;51.378;-1.342;2023-05-25T07:43:16;101564.40;;;22.90;30.87
67803;BME280;54601;51.378;-1.342;2023-05-25T07:45:42;101563.77;;;22.41;31.19
67803;BME280;54601;51.378;-1.342;2023-05-25T07:48:07;101566.24;;;22.65;30.94
67803;BME280;54601;51.378;-1.342;2023-05-25T07:50:33;101567.82;;;22.85;30.99
67803;BME280;54601;51.378;-1.342;2023-05-25T07:52:59;101571.66;;;22.76;30.80
67803;BME280;54601;51.378;-1.342;2023-05-25T07:55:25;101576.72;;;22.79;30.75
67803;BME280;54601;51.378;-1.342;2023-05-25T07:57:51;101573.10;;;22.80;30.85
67803;BME280;54601;51.378;-1.342;2023-05-25T08:00:18;101575.95;;;22.63;30.83
67803;BME280;54601;51.378;-1.342;2023-05-25T08:02:43;101578.98;;;22.41;30.79
67803;BME280;54601;51.378;-1.342;2023-05-25T08:05:09;101579.48;;;22.70;30.82
67803;BME280;54601;51.378;-1.342;2023-05-25T08:07:34;101578.39;;;22.60;30.96
67803;BME280;54601;51.378;-1.342;2023-05-25T08:10:01;101580.13;;;22.82;30.74
67803;BME280;54601;51.378;-1.342;2023-05-25T08:12:26;101580.81;;;22.91;30.90
67803;BME280;54601;51.378;-1.342;2023-05-25T08:14:52;101580.55;;;22.67;30.70
67803;BME280;54601;51.378;-1.342;2023-05-25T08:17:18;101578.15;;;23.06;30.54
67803;BME280;54601;51.378;-1.342;2023-05-25T08:19:43;101582.74;;;22.93;30.74
67803;BME280;54601;51.378;-1.342;2023-05-25T08:22:09;101586.69;;;23.05;30.61
67803;BME280;54601;51.378;-1.342;2023-05-25T08:24:35;101591.41;;;23.29;30.62
67803;BME280;54601;51.378;-1.342;2023-05-25T08:27:01;101593.35;;;23.51;30.38
67803;BME280;54601;51.378;-1.342;2023-05-25T08:29:27;101591.65;;;23.04;30.36
67803;BME280;54601;51.378;-1.342;2023-05-25T08:31:53;101595.32;;;23.22;30.23
67803;BME280;54601;51.378;-1.342;2023-05-25T08:34:18;101590.79;;;23.20;30.25
67803;BME280;54601;51.378;-1.342;2023-05-25T08:36:45;101590.14;;;23.70;30.27
67803;BME280;54601;51.378;-1.342;2023-05-25T08:39:10;101588.72;;;23.57;30.21
67803;BME280;54601;51.378;-1.342;2023-05-25T08:41:43;101587.27;;;23.59;30.19
67803;BME280;54601;51.378;-1.342;2023-05-25T08:44:02;101590.11;;;23.69;30.13
67803;BME280;54601;51.378;-1.342;2023-05-25T08:46:29;101582.72;;;23.48;30.03
67803;BME280;54601;51.378;-1.342;2023-05-25T08:48:58;101580.27;;;23.58;29.98
67803;BME280;54601;51.378;-1.342;2023-05-25T08:51:19;101581.53;;;23.81;29.94
67803;BME280;54601;51.378;-1.342;2023-05-25T08:53:45;101580.34;;;23.58;29.86
67803;BME280;54601;51.378;-1.342;2023-05-25T08:56:15;101580.98;;;23.62;29.91
67803;BME280;54601;51.378;-1.342;2023-05-25T08:58:41;101575.88;;;23.66;29.93
67803;BME280;54601;51.378;-1.342;2023-05-25T09:01:07;101576.47;;;23.72;29.88
67803;BME280;54601;51.378;-1.342;2023-05-25T09:03:28;101575.64;;;23.78;29.83
67803;BME280;54601;51.378;-1.342;2023-05-25T09:05:55;101574.29;;;23.76;29.87
67803;BME280;54601;51.378;-1.342;2023-05-25T09:08:21;101573.81;;;23.78;29.86
67803;BME280;54601;51.378;-1.342;2023-05-25T09:10:46;101573.23;;;24.11;29.79
67803;BME280;54601;51.378;-1.342;2023-05-25T09:13:11;101575.96;;;23.85;29.81
67803;BME280;54601;51.378;-1.342;2023-05-25T09:15:37;101572.76;;;23.91;29.78
67803;BME280;54601;51.378;-1.342;2023-05-25T09:18:03;101574.81;;;24.02;29.71
67803;BME280;54601;51.378;-1.342;2023-05-25T09:20:29;101575.68;;;23.97;29.74
67803;BME280;54601;51.378;-1.342;2023-05-25T09:22:54;101580.36;;;24.10;29.66
67803;BME280;54601;51.378;-1.342;2023-05-25T09:25:20;101574.62;;;24.10;29.67
67803;BME280;54601;51.378;-1.342;2023-05-25T09:27:46;101574.89;;;24.18;29.61
67803;BME280;54601;51.378;-1.342;2023-05-25T09:30:12;101579.47;;;24.20;29.58
67803;BME280;54601;51.378;-1.342;2023-05-25T09:32:37;101577.41;;;24.00;29.55
67803;BME280;54601;51.378;-1.342;2023-05-25T09:35:06;101575.86;;;24.27;29.54
67803;BME280;54601;51.378;-1.342;2023-05-25T09:37:29;101580.39;;;24.30;29.51
67803;BME280;54601;51.378;-1.342;2023-05-25T09:39:55;101587.23;;;24.35;29.44
67803;BME280;54601;51.378;-1.342;2023-05-25T09:42:20;101582.02;;;24.35;29.47
67803;BME280;54601;51.378;-1.342;2023-05-25T09:44:47;101583.92;;;24.36;29.50
67803;BME280;54601;51.378;-1.342;2023-05-25T09:47:12;101583.03;;;24.39;29.49
67803;BME280;54601;51.378;-1.342;2023-05-25T09:49:38;101584.34;;;24.20;29.40
67803;BME280;54601;51.378;-1.342;2023-05-25T09:52:04;101582.64;;;24.18;29.49
67803;BME280;54601;51.378;-1.342;2023-05-25T09:54:29;101581.20;;;24.25;29.44
67803;BME280;54601;51.378;-1.342;2023-05-25T09:56:55;101580.81;;;24.36;29.35
67803;BME280;54601;51.378;-1.342;2023-05-25T09:59:21;101582.29;;;24.61;29.29
67803;BME280;54601;51.378;-1.342;2023-05-25T10:01:50;101580.67;;;24.39;29.32
67803;BME280;54601;51.378;-1.342;2023-05-25T10:04:15;101575.05;;;24.35;29.37
67803;BME280;54601;51.378;-1.342;2023-05-25T10:06:38;101583.15;;;24.66;29.29
67803;BME280;54601;51.378;-1.342;2023-05-25T10:09:05;101577.61;;;24.56;29.39
67803;BME280;54601;51.378;-1.342;2023-05-25T10:11:30;101589.65;;;24.61;29.29
67803;BME280;54601;51.378;-1.342;2023-05-25T10:13:55;101588.35;;;24.65;29.36
67803;BME280;54601;51.378;-1.342;2023-05-25T10:16:24;101585.91;;;24.64;29.33
67803;BME280;54601;51.378;-1.342;2023-05-25T10:18:50;101586.18;;;24.64;29.38
67803;BME280;54601;51.378;-1.342;2023-05-25T10:21:14;101587.24;;;24.68;29.31
67803;BME280;54601;51.378;-1.342;2023-05-25T10:23:44;101585.16;;;24.70;29.32
67803;BME280;54601;51.378;-1.342;2023-05-25T10:26:04;101585.36;;;24.44;29.35
67803;BME280;54601;51.378;-1.342;2023-05-25T10:28:35;101587.13;;;24.67;29.36
67803;BME280;54601;51.378;-1.342;2023-05-25T10:30:56;101591.41;;;24.22;29.32
67803;BME280;54601;51.378;-1.342;2023-05-25T10:33:21;101592.30;;;24.50;29.32
67803;BME280;54601;51.378;-1.342;2023-05-25T10:35:48;101596.01;;;24.51;29.31
67803;BME280;54601;51.378;-1.342;2023-05-25T10:38:13;101596.39;;;24.75;29.29
67803;BME280;54601;51.378;-1.342;2023-05-25T10:40:38;101597.16;;;24.74;29.29
67803;BME280;54601;51.378;-1.342;2023-05-25T10:43:05;101597.93;;;24.69;29.35
67803;BME280;54601;51.378;-1.342;2023-05-25T10:45:30;101602.47;;;24.49;29.32
67803;BME280;54601;51.378;-1.342;2023-05-25T10:47:56;101599.95;;;24.45;29.40
67803;BME280;54601;51.378;-1.342;2023-05-25T10:50:22;101608.30;;;24.66;29.42
67803;BME280;54601;51.378;-1.342;2023-05-25T10:55:13;101596.78;;;24.74;29.37
67803;BME280;54601;51.378;-1.342;2023-05-25T10:57:39;101598.57;;;24.44;29.45
67803;BME280;54601;51.378;-1.342;2023-05-25T11:00:06;101600.41;;;24.18;29.46
67803;BME280;54601;51.378;-1.342;2023-05-25T11:02:39;101595.17;;;24.46;29.45
67803;BME280;54601;51.378;-1.342;2023-05-25T11:07:21;101592.91;;;24.17;29.47
67803;BME280;54601;51.378;-1.342;2023-05-25T11:09:55;101597.39;;;24.55;29.56
67803;BME280;54601;51.378;-1.342;2023-05-25T11:12:18;101596.52;;;24.41;29.47
67803;BME280;54601;51.378;-1.342;2023-05-25T11:14:39;101599.70;;;24.38;29.51
67803;BME280;54601;51.378;-1.342;2023-05-25T11:17:06;101595.98;;;24.52;29.61
67803;BME280;54601;51.378;-1.342;2023-05-25T11:21:56;101592.81;;;24.33;29.59
67803;BME280;54601;51.378;-1.342;2023-05-25T11:24:22;101587.51;;;24.54;29.62
67803;BME280;54601;51.378;-1.342;2023-05-25T11:26:53;101596.58;;;24.05;29.61
67803;BME280;54601;51.378;-1.342;2023-05-25T11:29:14;101594.09;;;24.46;29.66
67803;BME280;54601;51.378;-1.342;2023-05-25T11:31:39;101594.92;;;24.24;29.66
67803;BME280;54601;51.378;-1.342;2023-05-25T11:34:05;101597.89;;;24.24;29.68
67803;BME280;54601;51.378;-1.342;2023-05-25T11:36:31;101595.47;;;24.20;29.69
67803;BME280;54601;51.378;-1.342;2023-05-25T11:38:57;101592.26;;;24.22;29.69
67803;BME280;54601;51.378;-1.342;2023-05-25T11:41:23;101594.84;;;24.16;29.76
67803;BME280;54601;51.378;-1.342;2023-05-25T11:43:49;101589.65;;;24.13;29.75
67803;BME280;54601;51.378;-1.342;2023-05-25T11:46:14;101589.78;;;24.35;29.77
67803;BME280;54601;51.378;-1.342;2023-05-25T11:48:43;101580.66;;;23.88;29.77
67803;BME280;54601;51.378;-1.342;2023-05-25T11:51:05;101579.34;;;24.38;29.74
67803;BME280;54601;51.378;-1.342;2023-05-25T11:53:31;101578.07;;;24.31;29.85
67803;BME280;54601;51.378;-1.342;2023-05-25T11:55:57;101573.37;;;24.33;29.79
67803;BME280;54601;51.378;-1.342;2023-05-25T11:58:22;101572.07;;;24.18;29.73
67803;BME280;54601;51.378;-1.342;2023-05-25T12:00:48;101568.81;;;24.12;29.81
67803;BME280;54601;51.378;-1.342;2023-05-25T12:05:40;101575.72;;;24.11;29.86
67803;BME280;54601;51.378;-1.342;2023-05-25T12:08:05;101580.70;;;24.05;29.93
67803;BME280;54601;51.378;-1.342;2023-05-25T12:10:31;101578.96;;;23.80;29.92
67803;BME280;54601;51.378;-1.342;2023-05-25T12:13:01;101577.73;;;24.33;29.89
67803;BME280;54601;51.378;-1.342;2023-05-25T12:15:23;101575.18;;;24.10;29.87
67803;BME280;54601;51.378;-1.342;2023-05-25T12:17:49;101581.00;;;23.82;29.89
67803;BME280;54601;51.378;-1.342;2023-05-25T12:20:16;101586.71;;;24.30;29.92
67803;BME280;54601;51.378;-1.342;2023-05-25T12:22:42;101585.29;;;24.06;29.93
67803;BME280;54601;51.378;-1.342;2023-05-25T12:25:07;101580.46;;;24.31;29.92
67803;BME280;54601;51.378;-1.342;2023-05-25T12:27:32;101584.82;;;24.13;29.88
67803;BME280;54601;51.378;-1.342;2023-05-25T12:29:57;101578.67;;;24.31;29.90
67803;BME280;54601;51.378;-1.342;2023-05-25T12:32:23;101576.15;;;24.31;29.92
67803;BME280;54601;51.378;-1.342;2023-05-25T12:34:49;101579.41;;;24.08;29.96
67803;BME280;54601;51.378;-1.342;2023-05-25T12:37:19;101583.21;;;24.02;30.02
67803;BME280;54601;51.378;-1.342;2023-05-25T12:39:40;101574.40;;;24.08;29.95
67803;BME280;54601;51.378;-1.342;2023-05-25T12:42:12;101574.97;;;24.31;29.94